Meteo Giornale » Osservazioni meteo Stati Uniti (USA) » Hobart
ore: 14:53 - Osservazioni Meteo Hobart
Lat. 34° 59' N Lon. 99° 3' W Alt. 476 metri s.l.m.
38 °C
Molto Nuvoloso
Temp. 24 Ore
24 °C
39 °C
Sud
25.9 Km/h
Dew point 13 °C
Umidità 22 %
Visibilità 10 Km
Il sole sorge alle ore 07:09
Il sole tramonta alle ore 20:03
| Data e Ora | Cielo e Fenomeni | T °C | DP °C | Um. % | Pres. hPa | Vis. km | Vento km/h | |
|---|---|---|---|---|---|---|---|---|
| Oggi h: 14:53 | Molto Nuvoloso | 38 | 13 | 22 | 1016 | 10 | S 25.9 | |
| Oggi h: 13:53 | Poco Nuvoloso | 38 | 14 | 24 | 1016 | 10 | S 22.2 | |
| Oggi h: 12:53 | Nuvoloso | 37 | 14 | 25 | 1017 | 10 | S/SO 13 | |
| Oggi h: 11:53 | Sereno | 36 | 15 | 28 | 1018 | 10 | S 27.8 | |
| Oggi h: 10:53 | Sereno | 34 | 16 | 34 | 1018 | 10 | S/SO 25.9 | |
| Oggi h: 09:53 | Sereno | 32 | 16 | 38 | 1018 | 10 | S/SO 22.2 | |
| Oggi h: 08:53 | Sereno | 28 | 15 | 45 | 1018 | 10 | S 20.3 | |
| Oggi h: 07:53 | Sereno | 25 | 14 | 50 | 1018 | 10 | S 16.7 | |
| Oggi h: 06:53 | Nuvoloso | 24 | 14 | 53 | 1017 | 10 | S 16.7 | |
| Oggi h: 05:53 | Sereno | 24 | 14 | 53 | 1017 | 10 | S/SO 14.8 | |
| Oggi h: 04:53 | Sereno | 25 | 14 | 50 | 1016 | 10 | S 14.8 | |
| Oggi h: 03:53 | Sereno | 27 | 14 | 44 | 1016 | 10 | S 22.2 | |
| Oggi h: 02:53 | Sereno | 27 | 13 | 42 | 1016 | 10 | S 18.5 | |
| Oggi h: 01:53 | Sereno | 28 | 13 | 39 | 1016 | 10 | S 20.3 | |
| Oggi h: 00:53 | Sereno | 29 | 13 | 37 | 1016 | 10 | S/SE 22.2 | |
| Ieri h: 23:53 | Sereno | 29 | 13 | 37 | 1016 | 10 | S/SE 22.2 | |
| Ieri h: 22:53 | Sereno | 30 | 11 | 30 | 1016 | 10 | S/SE 20.3 | |
| Ieri h: 21:53 | Sereno | 30 | 12 | 33 | 1015 | 10 | S/SE 16.7 | |
| Ieri h: 20:53 | Sereno | 32 | 12 | 29 | 1014 | 10 | S/SE 16.7 | |
| Ieri h: 19:53 | Sereno | 34 | 12 | 26 | 1014 | 10 | S/SE 20.3 | |
| Ieri h: 18:53 | Sereno | 37 | 13 | 23 | 1014 | 10 | S 25.9 | |
| Ieri h: 17:53 | Nuvoloso | 38 | 13 | 22 | 1014 | 10 | S 24 | |
| Ieri h: 16:53 | Poco Nuvoloso | 39 | 13 | 21 | 1014 | 10 | S 24 | |
| Ieri h: 15:53 | Nuvoloso | 39 | 14 | 22 | 1014 | 10 | S/SE 29.6 | |



